sensor_id;sensor_type;location;lat;lon;timestamp;temperature;humidity
72468;SHT30;60626;43.582;1.470;2023-03-01T00:01:06;7.05;44.96
72468;SHT30;60626;43.582;1.470;2023-03-01T00:03:33;7.02;44.76
72468;SHT30;60626;43.582;1.470;2023-03-01T00:06:00;7.01;45.06
72468;SHT30;60626;43.582;1.470;2023-03-01T00:08:27;6.99;45.39
72468;SHT30;60626;43.582;1.470;2023-03-01T00:11:10;7.01;45.73
72468;SHT30;60626;43.582;1.470;2023-03-01T00:13:38;7.06;45.91
72468;SHT30;60626;43.582;1.470;2023-03-01T00:16:06;7.06;45.66
72468;SHT30;60626;43.582;1.470;2023-03-01T00:18:34;7.09;45.77
72468;SHT30;60626;43.582;1.470;2023-03-01T00:21:01;7.16;45.77
72468;SHT30;60626;43.582;1.470;2023-03-01T00:23:27;7.18;45.68
72468;SHT30;60626;43.582;1.470;2023-03-01T00:25:54;7.20;45.59
72468;SHT30;60626;43.582;1.470;2023-03-01T00:28:21;7.23;45.40
72468;SHT30;60626;43.582;1.470;2023-03-01T00:30:48;7.25;45.50
72468;SHT30;60626;43.582;1.470;2023-03-01T00:33:14;7.25;45.52
72468;SHT30;60626;43.582;1.470;2023-03-01T00:35:41;7.27;45.48
72468;SHT30;60626;43.582;1.470;2023-03-01T00:38:08;7.26;45.19
72468;SHT30;60626;43.582;1.470;2023-03-01T00:40:35;7.25;45.41
72468;SHT30;60626;43.582;1.470;2023-03-01T00:43:03;7.22;45.63
72468;SHT30;60626;43.582;1.470;2023-03-01T00:45:30;7.18;45.64
72468;SHT30;60626;43.582;1.470;2023-03-01T00:47:57;7.16;45.06
72468;SHT30;60626;43.582;1.470;2023-03-01T00:50:24;7.13;44.99
72468;SHT30;60626;43.582;1.470;2023-03-01T00:52:55;7.08;45.15
72468;SHT30;60626;43.582;1.470;2023-03-01T00:55:22;7.05;45.34
72468;SHT30;60626;43.582;1.470;2023-03-01T00:57:49;7.04;45.42
72468;SHT30;60626;43.582;1.470;2023-03-01T01:00:16;6.99;45.37
72468;SHT30;60626;43.582;1.470;2023-03-01T01:02:43;6.96;45.54
72468;SHT30;60626;43.582;1.470;2023-03-01T01:05:10;6.98;45.55
72468;SHT30;60626;43.582;1.470;2023-03-01T01:07:37;6.96;45.61
72468;SHT30;60626;43.582;1.470;2023-03-01T01:10:05;6.96;45.50
72468;SHT30;60626;43.582;1.470;2023-03-01T01:12:32;6.99;45.40
72468;SHT30;60626;43.582;1.470;2023-03-01T01:14:59;6.96;45.30
72468;SHT30;60626;43.582;1.470;2023-03-01T01:17:25;6.95;45.50
72468;SHT30;60626;43.582;1.470;2023-03-01T01:19:52;6.92;45.73
72468;SHT30;60626;43.582;1.470;2023-03-01T01:22:19;6.94;45.97
72468;SHT30;60626;43.582;1.470;2023-03-01T01:24:45;6.91;45.98
72468;SHT30;60626;43.582;1.470;2023-03-01T01:27:12;6.92;45.88
72468;SHT30;60626;43.582;1.470;2023-03-01T01:29:39;6.91;45.88
72468;SHT30;60626;43.582;1.470;2023-03-01T01:32:05;6.88;45.57
72468;SHT30;60626;43.582;1.470;2023-03-01T01:34:32;6.89;45.30
72468;SHT30;60626;43.582;1.470;2023-03-01T01:36:58;6.84;45.48
72468;SHT30;60626;43.582;1.470;2023-03-01T01:39:29;6.74;45.66
72468;SHT30;60626;43.582;1.470;2023-03-01T01:41:55;6.68;45.88
72468;SHT30;60626;43.582;1.470;2023-03-01T01:44:26;6.66;45.79
72468;SHT30;60626;43.582;1.470;2023-03-01T01:47:03;6.58;45.53
72468;SHT30;60626;43.582;1.470;2023-03-01T01:49:35;6.60;45.29
72468;SHT30;60626;43.582;1.470;2023-03-01T01:52:09;6.57;45.34
72468;SHT30;60626;43.582;1.470;2023-03-01T01:57:40;6.56;45.41
72468;SHT30;60626;43.582;1.470;2023-03-01T02:00:21;6.51;45.42
72468;SHT30;60626;43.582;1.470;2023-03-01T02:02:51;6.49;45.40
72468;SHT30;60626;43.582;1.470;2023-03-01T02:05:31;6.46;45.36
72468;SHT30;60626;43.582;1.470;2023-03-01T02:08:01;6.47;45.39
72468;SHT30;60626;43.582;1.470;2023-03-01T02:10:28;6.49;45.48
72468;SHT30;60626;43.582;1.470;2023-03-01T02:12:55;6.47;45.46
72468;SHT30;60626;43.582;1.470;2023-03-01T02:15:25;6.50;45.36
72468;SHT30;60626;43.582;1.470;2023-03-01T02:17:54;6.49;45.43
72468;SHT30;60626;43.582;1.470;2023-03-01T02:22:56;6.46;45.70
72468;SHT30;60626;43.582;1.470;2023-03-01T02:30:35;6.39;45.88
72468;SHT30;60626;43.582;1.470;2023-03-01T02:33:03;6.33;46.08
72468;SHT30;60626;43.582;1.470;2023-03-01T02:35:34;6.30;46.12
72468;SHT30;60626;43.582;1.470;2023-03-01T02:38:03;6.29;45.97
72468;SHT30;60626;43.582;1.470;2023-03-01T02:40:30;6.22;46.34
72468;SHT30;60626;43.582;1.470;2023-03-01T02:42:58;6.18;46.36
72468;SHT30;60626;43.582;1.470;2023-03-01T02:45:26;6.11;46.88
72468;SHT30;60626;43.582;1.470;2023-03-01T02:47:54;6.08;47.25
72468;SHT30;60626;43.582;1.470;2023-03-01T02:53:14;6.05;46.67
72468;SHT30;60626;43.582;1.470;2023-03-01T02:55:42;6.03;46.83
72468;SHT30;60626;43.582;1.470;2023-03-01T02:58:09;6.03;46.95
72468;SHT30;60626;43.582;1.470;2023-03-01T03:00:39;6.05;47.04
72468;SHT30;60626;43.582;1.470;2023-03-01T03:03:06;6.11;46.91
72468;SHT30;60626;43.582;1.470;2023-03-01T03:05:33;6.09;46.71
72468;SHT30;60626;43.582;1.470;2023-03-01T03:08:01;6.09;46.64
72468;SHT30;60626;43.582;1.470;2023-03-01T03:10:31;6.08;46.96
72468;SHT30;60626;43.582;1.470;2023-03-01T03:13:00;6.09;46.80
72468;SHT30;60626;43.582;1.470;2023-03-01T03:15:28;6.08;46.88
72468;SHT30;60626;43.582;1.470;2023-03-01T03:17:56;6.08;46.94
72468;SHT30;60626;43.582;1.470;2023-03-01T03:20:26;6.06;46.96
72468;SHT30;60626;43.582;1.470;2023-03-01T03:22:55;6.05;47.06
72468;SHT30;60626;43.582;1.470;2023-03-01T03:25:22;6.02;46.93
72468;SHT30;60626;43.582;1.470;2023-03-01T03:27:50;5.98;46.93
72468;SHT30;60626;43.582;1.470;2023-03-01T03:30:29;5.94;47.27
72468;SHT30;60626;43.582;1.470;2023-03-01T03:32:57;5.94;47.43
72468;SHT30;60626;43.582;1.470;2023-03-01T03:35:26;5.94;47.35
72468;SHT30;60626;43.582;1.470;2023-03-01T03:37:54;5.94;47.22
72468;SHT30;60626;43.582;1.470;2023-03-01T03:43:05;5.88;47.55
72468;SHT30;60626;43.582;1.470;2023-03-01T03:45:32;5.90;47.52
72468;SHT30;60626;43.582;1.470;2023-03-01T03:48:00;5.84;47.38
72468;SHT30;60626;43.582;1.470;2023-03-01T03:50:27;5.82;47.53
72468;SHT30;60626;43.582;1.470;2023-03-01T03:52:54;5.79;47.54
72468;SHT30;60626;43.582;1.470;2023-03-01T03:55:20;5.71;47.57
72468;SHT30;60626;43.582;1.470;2023-03-01T03:57:48;5.68;47.86
72468;SHT30;60626;43.582;1.470;2023-03-01T04:00:20;5.70;48.09
72468;SHT30;60626;43.582;1.470;2023-03-01T04:02:47;5.71;48.21
72468;SHT30;60626;43.582;1.470;2023-03-01T04:05:17;5.67;47.87
72468;SHT30;60626;43.582;1.470;2023-03-01T04:07:45;5.67;48.08
72468;SHT30;60626;43.582;1.470;2023-03-01T04:10:15;5.64;48.11
72468;SHT30;60626;43.582;1.470;2023-03-01T04:12:42;5.61;48.03
72468;SHT30;60626;43.582;1.470;2023-03-01T04:15:11;5.60;48.31
72468;SHT30;60626;43.582;1.470;2023-03-01T04:17:42;5.63;48.64
72468;SHT30;60626;43.582;1.470;2023-03-01T04:20:14;5.63;48.52
72468;SHT30;60626;43.582;1.470;2023-03-01T04:22:44;5.61;48.17
72468;SHT30;60626;43.582;1.470;2023-03-01T04:25:13;5.60;48.28
72468;SHT30;60626;43.582;1.470;2023-03-01T04:27:40;5.60;48.08
72468;SHT30;60626;43.582;1.470;2023-03-01T04:30:09;5.60;48.18
72468;SHT30;60626;43.582;1.470;2023-03-01T04:32:36;5.58;48.29
72468;SHT30;60626;43.582;1.470;2023-03-01T04:35:02;5.57;48.17
72468;SHT30;60626;43.582;1.470;2023-03-01T04:37:29;5.58;48.45
72468;SHT30;60626;43.582;1.470;2023-03-01T04:39:56;5.56;48.25
72468;SHT30;60626;43.582;1.470;2023-03-01T04:42:22;5.53;48.30
72468;SHT30;60626;43.582;1.470;2023-03-01T04:44:49;5.51;48.30
72468;SHT30;60626;43.582;1.470;2023-03-01T04:47:17;5.47;48.23
72468;SHT30;60626;43.582;1.470;2023-03-01T04:49:44;5.46;48.41
72468;SHT30;60626;43.582;1.470;2023-03-01T04:52:10;5.46;48.64
72468;SHT30;60626;43.582;1.470;2023-03-01T04:54:37;5.47;48.92
72468;SHT30;60626;43.582;1.470;2023-03-01T04:57:04;5.47;48.87
72468;SHT30;60626;43.582;1.470;2023-03-01T04:59:30;5.43;48.60
72468;SHT30;60626;43.582;1.470;2023-03-01T05:01:57;5.42;48.61
72468;SHT30;60626;43.582;1.470;2023-03-01T05:04:24;5.39;48.54
72468;SHT30;60626;43.582;1.470;2023-03-01T05:06:51;5.40;48.79
72468;SHT30;60626;43.582;1.470;2023-03-01T05:09:19;5.43;49.08
72468;SHT30;60626;43.582;1.470;2023-03-01T05:11:46;5.44;48.80
72468;SHT30;60626;43.582;1.470;2023-03-01T05:14:13;5.44;48.63
72468;SHT30;60626;43.582;1.470;2023-03-01T05:16:39;5.40;48.40
72468;SHT30;60626;43.582;1.470;2023-03-01T05:19:06;5.33;48.41
72468;SHT30;60626;43.582;1.470;2023-03-01T05:21:42;5.27;48.69
72468;SHT30;60626;43.582;1.470;2023-03-01T05:24:32;5.27;48.76
72468;SHT30;60626;43.582;1.470;2023-03-01T05:27:00;5.23;48.89
72468;SHT30;60626;43.582;1.470;2023-03-01T05:29:30;5.25;48.79
72468;SHT30;60626;43.582;1.470;2023-03-01T05:31:58;5.26;48.98
72468;SHT30;60626;43.582;1.470;2023-03-01T05:34:27;5.26;48.86
72468;SHT30;60626;43.582;1.470;2023-03-01T05:36:54;5.23;48.96
72468;SHT30;60626;43.582;1.470;2023-03-01T05:39:22;5.26;49.32
72468;SHT30;60626;43.582;1.470;2023-03-01T05:41:58;5.27;49.61
72468;SHT30;60626;43.582;1.470;2023-03-01T05:44:26;5.29;49.71
72468;SHT30;60626;43.582;1.470;2023-03-01T05:46:53;5.27;49.87
72468;SHT30;60626;43.582;1.470;2023-03-01T05:49:20;5.27;49.56
72468;SHT30;60626;43.582;1.470;2023-03-01T05:51:52;5.27;49.35
72468;SHT30;60626;43.582;1.470;2023-03-01T05:54:20;5.20;49.14
72468;SHT30;60626;43.582;1.470;2023-03-01T05:56:48;5.20;49.07
72468;SHT30;60626;43.582;1.470;2023-03-01T05:59:17;5.16;49.21
72468;SHT30;60626;43.582;1.470;2023-03-01T06:01:43;5.12;49.32
72468;SHT30;60626;43.582;1.470;2023-03-01T06:04:10;5.12;49.45
72468;SHT30;60626;43.582;1.470;2023-03-01T06:06:37;5.15;49.70
72468;SHT30;60626;43.582;1.470;2023-03-01T06:09:05;5.16;49.83
72468;SHT30;60626;43.582;1.470;2023-03-01T06:11:35;5.15;49.76
72468;SHT30;60626;43.582;1.470;2023-03-01T06:14:02;5.16;49.78
72468;SHT30;60626;43.582;1.470;2023-03-01T06:16:29;5.15;49.19
72468;SHT30;60626;43.582;1.470;2023-03-01T06:18:56;5.11;49.35
72468;SHT30;60626;43.582;1.470;2023-03-01T06:21:23;5.11;49.21
72468;SHT30;60626;43.582;1.470;2023-03-01T06:23:49;5.12;49.28
72468;SHT30;60626;43.582;1.470;2023-03-01T06:26:16;5.08;49.31
72468;SHT30;60626;43.582;1.470;2023-03-01T06:28:42;5.07;49.77
72468;SHT30;60626;43.582;1.470;2023-03-01T06:31:12;5.02;50.03
72468;SHT30;60626;43.582;1.470;2023-03-01T06:33:39;5.07;49.90
72468;SHT30;60626;43.582;1.470;2023-03-01T06:36:06;5.08;49.89
72468;SHT30;60626;43.582;1.470;2023-03-01T06:38:33;5.09;49.81
72468;SHT30;60626;43.582;1.470;2023-03-01T06:41:00;5.05;49.97
72468;SHT30;60626;43.582;1.470;2023-03-01T06:43:27;5.08;49.88
72468;SHT30;60626;43.582;1.470;2023-03-01T06:45:54;5.07;49.75
72468;SHT30;60626;43.582;1.470;2023-03-01T06:48:20;5.07;49.67
72468;SHT30;60626;43.582;1.470;2023-03-01T06:50:47;5.08;49.61
72468;SHT30;60626;43.582;1.470;2023-03-01T06:53:14;5.07;49.76
72468;SHT30;60626;43.582;1.470;2023-03-01T06:55:41;5.15;49.90
72468;SHT30;60626;43.582;1.470;2023-03-01T06:58:08;5.25;50.15
72468;SHT30;60626;43.582;1.470;2023-03-01T07:00:35;5.36;49.82
72468;SHT30;60626;43.582;1.470;2023-03-01T07:03:02;5.44;49.30
72468;SHT30;60626;43.582;1.470;2023-03-01T07:05:30;5.48;49.25
72468;SHT30;60626;43.582;1.470;2023-03-01T07:07:56;5.57;48.96
72468;SHT30;60626;43.582;1.470;2023-03-01T07:10:23;5.70;48.85
72468;SHT30;60626;43.582;1.470;2023-03-01T07:12:50;5.82;48.93
72468;SHT30;60626;43.582;1.470;2023-03-01T07:15:17;5.98;48.68
72468;SHT30;60626;43.582;1.470;2023-03-01T07:17:43;6.06;48.43
72468;SHT30;60626;43.582;1.470;2023-03-01T07:20:11;6.18;48.36
72468;SHT30;60626;43.582;1.470;2023-03-01T07:22:39;6.25;48.41
72468;SHT30;60626;43.582;1.470;2023-03-01T07:25:07;6.26;48.32
72468;SHT30;60626;43.582;1.470;2023-03-01T07:27:34;6.28;48.27
72468;SHT30;60626;43.582;1.470;2023-03-01T07:30:01;6.29;48.30
72468;SHT30;60626;43.582;1.470;2023-03-01T07:32:27;6.33;48.42
72468;SHT30;60626;43.582;1.470;2023-03-01T07:34:54;6.34;48.11
72468;SHT30;60626;43.582;1.470;2023-03-01T07:37:21;6.36;48.07
72468;SHT30;60626;43.582;1.470;2023-03-01T07:39:48;6.40;47.86
72468;SHT30;60626;43.582;1.470;2023-03-01T07:42:14;6.40;48.05
72468;SHT30;60626;43.582;1.470;2023-03-01T07:44:41;6.44;47.92
72468;SHT30;60626;43.582;1.470;2023-03-01T07:47:08;6.53;47.67
72468;SHT30;60626;43.582;1.470;2023-03-01T07:49:34;6.60;47.81
72468;SHT30;60626;43.582;1.470;2023-03-01T07:52:01;6.66;47.25
72468;SHT30;60626;43.582;1.470;2023-03-01T07:54:27;6.67;47.01
72468;SHT30;60626;43.582;1.470;2023-03-01T07:56:56;6.70;47.20
72468;SHT30;60626;43.582;1.470;2023-03-01T07:59:23;6.74;47.01
72468;SHT30;60626;43.582;1.470;2023-03-01T08:01:56;6.74;47.15
72468;SHT30;60626;43.582;1.470;2023-03-01T08:04:22;6.75;46.67
72468;SHT30;60626;43.582;1.470;2023-03-01T08:06:51;6.75;46.67
72468;SHT30;60626;43.582;1.470;2023-03-01T08:09:17;6.83;46.85
72468;SHT30;60626;43.582;1.470;2023-03-01T08:11:44;6.83;47.12
72468;SHT30;60626;43.582;1.470;2023-03-01T08:14:11;6.89;46.61
72468;SHT30;60626;43.582;1.470;2023-03-01T08:16:38;6.92;46.24
72468;SHT30;60626;43.582;1.470;2023-03-01T08:19:07;6.96;46.74
72468;SHT30;60626;43.582;1.470;2023-03-01T08:21:34;7.04;46.56
72468;SHT30;60626;43.582;1.470;2023-03-01T08:24:05;7.01;45.88
72468;SHT30;60626;43.582;1.470;2023-03-01T08:26:33;6.96;46.12
72468;SHT30;60626;43.582;1.470;2023-03-01T08:29:00;6.96;46.17
72468;SHT30;60626;43.582;1.470;2023-03-01T08:31:31;6.98;46.13
72468;SHT30;60626;43.582;1.470;2023-03-01T08:34:00;7.01;46.17
72468;SHT30;60626;43.582;1.470;2023-03-01T08:36:29;7.11;46.49
72468;SHT30;60626;43.582;1.470;2023-03-01T08:38:58;7.20;46.30
72468;SHT30;60626;43.582;1.470;2023-03-01T08:41:24;7.25;46.23
72468;SHT30;60626;43.582;1.470;2023-03-01T08:43:51;7.34;46.29
72468;SHT30;60626;43.582;1.470;2023-03-01T08:46:19;7.47;46.09
72468;SHT30;60626;43.582;1.470;2023-03-01T08:48:45;7.42;45.42
72468;SHT30;60626;43.582;1.470;2023-03-01T08:51:15;7.40;45.76
72468;SHT30;60626;43.582;1.470;2023-03-01T08:53:45;7.51;45.88
72468;SHT30;60626;43.582;1.470;2023-03-01T08:56:12;7.60;45.88
72468;SHT30;60626;43.582;1.470;2023-03-01T08:58:39;7.71;45.44
72468;SHT30;60626;43.582;1.470;2023-03-01T09:01:07;7.89;45.56
72468;SHT30;60626;43.582;1.470;2023-03-01T09:03:34;8.09;45.71
72468;SHT30;60626;43.582;1.470;2023-03-01T09:06:02;8.39;45.18
72468;SHT30;60626;43.582;1.470;2023-03-01T09:08:30;8.77;45.05
72468;SHT30;60626;43.582;1.470;2023-03-01T09:10:56;8.95;44.38
72468;SHT30;60626;43.582;1.470;2023-03-01T09:13:24;9.08;43.49
72468;SHT30;60626;43.582;1.470;2023-03-01T09:15:54;9.28;43.30
72468;SHT30;60626;43.582;1.470;2023-03-01T09:18:21;9.61;42.75
72468;SHT30;60626;43.582;1.470;2023-03-01T09:20:47;9.93;41.98
72468;SHT30;60626;43.582;1.470;2023-03-01T09:23:14;10.29;41.36
72468;SHT30;60626;43.582;1.470;2023-03-01T09:25:40;10.61;40.65
72468;SHT30;60626;43.582;1.470;2023-03-01T09:28:07;10.88;42.41
72468;SHT30;60626;43.582;1.470;2023-03-01T09:30:40;10.98;39.90
72468;SHT30;60626;43.582;1.470;2023-03-01T09:33:07;11.07;39.34
72468;SHT30;60626;43.582;1.470;2023-03-01T09:35:40;11.31;38.89
72468;SHT30;60626;43.582;1.470;2023-03-01T09:38:13;11.49;38.75
72468;SHT30;60626;43.582;1.470;2023-03-01T09:40:43;11.66;38.13
72468;SHT30;60626;43.582;1.470;2023-03-01T09:43:25;11.90;41.09
72468;SHT30;60626;43.582;1.470;2023-03-01T09:45:54;12.07;39.94
72468;SHT30;60626;43.582;1.470;2023-03-01T09:48:25;12.08;39.15
72468;SHT30;60626;43.582;1.470;2023-03-01T09:50:53;11.99;37.08
72468;SHT30;60626;43.582;1.470;2023-03-01T09:53:22;12.13;37.54
72468;SHT30;60626;43.582;1.470;2023-03-01T09:56:03;12.18;38.09
72468;SHT30;60626;43.582;1.470;2023-03-01T10:04:49;12.11;37.70
72468;SHT30;60626;43.582;1.470;2023-03-01T10:09:57;11.98;34.90
72468;SHT30;60626;43.582;1.470;2023-03-01T10:12:34;12.15;35.68
72468;SHT30;60626;43.582;1.470;2023-03-01T10:15:28;12.42;36.63
72468;SHT30;60626;43.582;1.470;2023-03-01T10:18:16;12.62;34.71
72468;SHT30;60626;43.582;1.470;2023-03-01T10:20:56;12.72;35.40
72468;SHT30;60626;43.582;1.470;2023-03-01T10:23:25;12.84;35.14
72468;SHT30;60626;43.582;1.470;2023-03-01T10:26:19;12.96;34.11
72468;SHT30;60626;43.582;1.470;2023-03-01T10:31:14;13.07;33.92
72468;SHT30;60626;43.582;1.470;2023-03-01T10:33:41;13.10;34.59
72468;SHT30;60626;43.582;1.470;2023-03-01T10:36:08;13.15;33.78
72468;SHT30;60626;43.582;1.470;2023-03-01T10:38:56;13.19;34.76
72468;SHT30;60626;43.582;1.470;2023-03-01T10:41:25;13.15;34.29
72468;SHT30;60626;43.582;1.470;2023-03-01T10:43:54;13.10;33.87
72468;SHT30;60626;43.582;1.470;2023-03-01T10:49:17;13.11;34.79
72468;SHT30;60626;43.582;1.470;2023-03-01T10:51:48;13.10;32.70
72468;SHT30;60626;43.582;1.470;2023-03-01T10:54:20;13.17;34.44
72468;SHT30;60626;43.582;1.470;2023-03-01T10:56:51;13.22;33.23
72468;SHT30;60626;43.582;1.470;2023-03-01T10:59:36;13.19;33.45
72468;SHT30;60626;43.582;1.470;2023-03-01T11:04:57;13.12;34.23
72468;SHT30;60626;43.582;1.470;2023-03-01T11:07:25;12.97;32.87
72468;SHT30;60626;43.582;1.470;2023-03-01T11:09:52;12.75;32.14
72468;SHT30;60626;43.582;1.470;2023-03-01T11:12:20;12.70;33.62
72468;SHT30;60626;43.582;1.470;2023-03-01T11:14:53;12.73;33.90
72468;SHT30;60626;43.582;1.470;2023-03-01T11:17:28;12.63;33.83
72468;SHT30;60626;43.582;1.470;2023-03-01T11:22:50;12.48;32.44
72468;SHT30;60626;43.582;1.470;2023-03-01T11:25:24;12.45;32.57
72468;SHT30;60626;43.582;1.470;2023-03-01T11:27:52;12.44;32.77
72468;SHT30;60626;43.582;1.470;2023-03-01T11:33:15;12.63;32.58
72468;SHT30;60626;43.582;1.470;2023-03-01T11:36:07;12.72;33.37
72468;SHT30;60626;43.582;1.470;2023-03-01T11:38:38;12.76;33.19
72468;SHT30;60626;43.582;1.470;2023-03-01T11:41:14;12.57;33.79
72468;SHT30;60626;43.582;1.470;2023-03-01T11:43:58;12.39;32.69
72468;SHT30;60626;43.582;1.470;2023-03-01T11:55:15;12.60;34.14
72468;SHT30;60626;43.582;1.470;2023-03-01T12:00:38;12.24;32.34
72468;SHT30;60626;43.582;1.470;2023-03-01T12:03:30;12.10;32.56
72468;SHT30;60626;43.582;1.470;2023-03-01T12:06:16;11.97;32.47
72468;SHT30;60626;43.582;1.470;2023-03-01T12:15:30;11.94;32.60
72468;SHT30;60626;43.582;1.470;2023-03-01T12:18:13;11.76;32.69
72468;SHT30;60626;43.582;1.470;2023-03-01T12:33:49;11.84;33.27
72468;SHT30;60626;43.582;1.470;2023-03-01T12:36:53;11.58;31.96
72468;SHT30;60626;43.582;1.470;2023-03-01T12:42:25;11.55;32.91
72468;SHT30;60626;43.582;1.470;2023-03-01T12:50:23;11.43;33.02
72468;SHT30;60626;43.582;1.470;2023-03-01T12:52:53;11.42;33.94
72468;SHT30;60626;43.582;1.470;2023-03-01T12:55:42;11.26;33.15
72468;SHT30;60626;43.582;1.470;2023-03-01T13:09:37;11.05;33.36
72468;SHT30;60626;43.582;1.470;2023-03-01T13:12:45;11.07;34.38
72468;SHT30;60626;43.582;1.470;2023-03-01T13:15:34;11.05;33.95
72468;SHT30;60626;43.582;1.470;2023-03-01T13:20:55;10.95;33.65
72468;SHT30;60626;43.582;1.470;2023-03-01T13:23:26;10.97;33.47
72468;SHT30;60626;43.582;1.470;2023-03-01T13:31:06;10.90;33.64
72468;SHT30;60626;43.582;1.470;2023-03-01T13:36:08;10.85;34.06
72468;SHT30;60626;43.582;1.470;2023-03-01T13:44:21;11.01;33.24
72468;SHT30;60626;43.582;1.470;2023-03-01T13:46:50;11.08;34.46
72468;SHT30;60626;43.582;1.470;2023-03-01T13:49:20;11.07;33.71
72468;SHT30;60626;43.582;1.470;2023-03-01T13:51:50;11.07;33.38
72468;SHT30;60626;43.582;1.470;2023-03-01T13:54:28;11.10;34.00
72468;SHT30;60626;43.582;1.470;2023-03-01T13:56:57;11.01;33.77
72468;SHT30;60626;43.582;1.470;2023-03-01T13:59:25;10.93;33.94
72468;SHT30;60626;43.582;1.470;2023-03-01T14:01:54;10.88;33.90
72468;SHT30;60626;43.582;1.470;2023-03-01T14:06:50;10.88;33.80
72468;SHT30;60626;43.582;1.470;2023-03-01T14:09:18;10.85;33.52
72468;SHT30;60626;43.582;1.470;2023-03-01T14:12:06;10.76;33.50
72468;SHT30;60626;43.582;1.470;2023-03-01T14:17:45;10.91;33.34
72468;SHT30;60626;43.582;1.470;2023-03-01T14:22:44;10.94;34.17
72468;SHT30;60626;43.582;1.470;2023-03-01T14:25:32;10.98;34.55
72468;SHT30;60626;43.582;1.470;2023-03-01T14:28:18;11.03;34.46
72468;SHT30;60626;43.582;1.470;2023-03-01T14:30:50;10.98;34.30
72468;SHT30;60626;43.582;1.470;2023-03-01T14:33:20;10.94;34.55
72468;SHT30;60626;43.582;1.470;2023-03-01T14:36:00;10.97;34.58
72468;SHT30;60626;43.582;1.470;2023-03-01T14:41:10;11.03;34.41
72468;SHT30;60626;43.582;1.470;2023-03-01T14:43:39;11.10;34.80
72468;SHT30;60626;43.582;1.470;2023-03-01T14:46:26;11.11;34.53
72468;SHT30;60626;43.582;1.470;2023-03-01T14:49:04;11.12;34.56
72468;SHT30;60626;43.582;1.470;2023-03-01T14:51:39;11.10;34.50
72468;SHT30;60626;43.582;1.470;2023-03-01T14:54:22;11.00;34.79
72468;SHT30;60626;43.582;1.470;2023-03-01T14:56:51;10.94;35.00
72468;SHT30;60626;43.582;1.470;2023-03-01T14:59:22;11.00;35.25
72468;SHT30;60626;43.582;1.470;2023-03-01T15:01:51;11.01;35.36
72468;SHT30;60626;43.582;1.470;2023-03-01T15:04:19;11.04;34.79
72468;SHT30;60626;43.582;1.470;2023-03-01T15:06:51;11.05;34.98
72468;SHT30;60626;43.582;1.470;2023-03-01T15:09:19;11.08;34.98
72468;SHT30;60626;43.582;1.470;2023-03-01T15:11:45;11.10;35.05
72468;SHT30;60626;43.582;1.470;2023-03-01T15:14:46;10.98;35.12
72468;SHT30;60626;43.582;1.470;2023-03-01T15:17:38;10.97;34.85
72468;SHT30;60626;43.582;1.470;2023-03-01T15:20:19;10.94;35.20
72468;SHT30;60626;43.582;1.470;2023-03-01T15:22:53;10.93;35.17
72468;SHT30;60626;43.582;1.470;2023-03-01T15:25:24;10.91;35.32
72468;SHT30;60626;43.582;1.470;2023-03-01T15:27:52;10.85;35.07
72468;SHT30;60626;43.582;1.470;2023-03-01T15:30:29;10.88;35.05
72468;SHT30;60626;43.582;1.470;2023-03-01T15:33:34;10.90;35.46
72468;SHT30;60626;43.582;1.470;2023-03-01T15:38:59;10.87;35.55
72468;SHT30;60626;43.582;1.470;2023-03-01T15:41:27;10.88;35.67
72468;SHT30;60626;43.582;1.470;2023-03-01T15:43:54;10.88;35.70
72468;SHT30;60626;43.582;1.470;2023-03-01T15:48:52;10.81;35.42
72468;SHT30;60626;43.582;1.470;2023-03-01T15:51:27;10.74;35.28
72468;SHT30;60626;43.582;1.470;2023-03-01T15:53:56;10.76;35.29
72468;SHT30;60626;43.582;1.470;2023-03-01T15:56:24;10.80;35.67
72468;SHT30;60626;43.582;1.470;2023-03-01T15:58:51;10.74;35.24
72468;SHT30;60626;43.582;1.470;2023-03-01T16:01:18;10.76;35.84
72468;SHT30;60626;43.582;1.470;2023-03-01T16:03:45;10.77;35.87
72468;SHT30;60626;43.582;1.470;2023-03-01T16:06:12;10.74;35.72
72468;SHT30;60626;43.582;1.470;2023-03-01T16:08:39;10.77;35.94
72468;SHT30;60626;43.582;1.470;2023-03-01T16:11:16;10.69;35.52
72468;SHT30;60626;43.582;1.470;2023-03-01T16:13:44;10.66;35.70
72468;SHT30;60626;43.582;1.470;2023-03-01T16:16:12;10.66;35.62
72468;SHT30;60626;43.582;1.470;2023-03-01T16:18:45;10.74;36.10
72468;SHT30;60626;43.582;1.470;2023-03-01T16:21:14;10.70;35.99
72468;SHT30;60626;43.582;1.470;2023-03-01T16:23:43;10.69;35.67
72468;SHT30;60626;43.582;1.470;2023-03-01T16:26:10;10.73;35.96
72468;SHT30;60626;43.582;1.470;2023-03-01T16:28:37;10.71;36.21
72468;SHT30;60626;43.582;1.470;2023-03-01T16:31:03;10.69;36.01
72468;SHT30;60626;43.582;1.470;2023-03-01T16:33:31;10.66;35.77
72468;SHT30;60626;43.582;1.470;2023-03-01T16:36:01;10.66;36.03
72468;SHT30;60626;43.582;1.470;2023-03-01T16:38:28;10.67;36.27
72468;SHT30;60626;43.582;1.470;2023-03-01T16:40:57;10.66;36.30
72468;SHT30;60626;43.582;1.470;2023-03-01T16:43:24;10.60;36.09
72468;SHT30;60626;43.582;1.470;2023-03-01T16:45:50;10.57;36.29
72468;SHT30;60626;43.582;1.470;2023-03-01T16:48:17;10.56;36.33
72468;SHT30;60626;43.582;1.470;2023-03-01T16:50:44;10.53;36.15
72468;SHT30;60626;43.582;1.470;2023-03-01T16:53:11;10.46;36.20
72468;SHT30;60626;43.582;1.470;2023-03-01T16:55:37;10.46;36.46
72468;SHT30;60626;43.582;1.470;2023-03-01T16:58:11;10.49;36.18
72468;SHT30;60626;43.582;1.470;2023-03-01T17:00:38;10.48;36.15
72468;SHT30;60626;43.582;1.470;2023-03-01T17:03:05;10.48;36.57
72468;SHT30;60626;43.582;1.470;2023-03-01T17:05:31;10.42;36.69
72468;SHT30;60626;43.582;1.470;2023-03-01T17:07:58;10.42;36.55
72468;SHT30;60626;43.582;1.470;2023-03-01T17:10:26;10.40;36.71
72468;SHT30;60626;43.582;1.470;2023-03-01T17:12:52;10.35;36.49
72468;SHT30;60626;43.582;1.470;2023-03-01T17:15:20;10.36;36.65
72468;SHT30;60626;43.582;1.470;2023-03-01T17:17:46;10.35;36.52
72468;SHT30;60626;43.582;1.470;2023-03-01T17:20:17;10.33;36.75
72468;SHT30;60626;43.582;1.470;2023-03-01T17:22:44;10.33;36.65
72468;SHT30;60626;43.582;1.470;2023-03-01T17:25:11;10.33;36.98
72468;SHT30;60626;43.582;1.470;2023-03-01T17:27:39;10.29;36.80
72468;SHT30;60626;43.582;1.470;2023-03-01T17:30:07;10.31;36.75
72468;SHT30;60626;43.582;1.470;2023-03-01T17:32:35;10.25;36.87
72468;SHT30;60626;43.582;1.470;2023-03-01T17:35:02;10.13;36.95
72468;SHT30;60626;43.582;1.470;2023-03-01T17:37:29;10.09;37.18
72468;SHT30;60626;43.582;1.470;2023-03-01T17:39:55;10.05;37.07
72468;SHT30;60626;43.582;1.470;2023-03-01T17:42:22;10.04;37.12
72468;SHT30;60626;43.582;1.470;2023-03-01T17:44:49;9.99;37.40
72468;SHT30;60626;43.582;1.470;2023-03-01T17:47:15;9.90;37.17
72468;SHT30;60626;43.582;1.470;2023-03-01T17:49:42;9.81;37.24
72468;SHT30;60626;43.582;1.470;2023-03-01T17:52:08;9.83;37.50
72468;SHT30;60626;43.582;1.470;2023-03-01T17:54:35;9.81;37.32
72468;SHT30;60626;43.582;1.470;2023-03-01T17:57:02;9.81;37.40
72468;SHT30;60626;43.582;1.470;2023-03-01T17:59:28;9.78;37.37